sensor_id;sensor_type;location;lat;lon;timestamp;P1;durP1;ratioP1;P2;durP2;ratioP2
9958;SDS011;5019;48.012;7.812;2022-10-16T00:02:17;0.60;;;0.60;;
9958;SDS011;5019;48.012;7.812;2022-10-16T00:04:43;1.80;;;0.73;;
9958;SDS011;5019;48.012;7.812;2022-10-16T00:07:09;0.90;;;0.90;;
9958;SDS011;5019;48.012;7.812;2022-10-16T00:09:35;1.17;;;0.80;;
9958;SDS011;5019;48.012;7.812;2022-10-16T00:12:02;1.00;;;0.90;;
9958;SDS011;5019;48.012;7.812;2022-10-16T00:14:29;1.00;;;0.90;;
9958;SDS011;5019;48.012;7.812;2022-10-16T00:16:55;0.80;;;0.80;;
9958;SDS011;5019;48.012;7.812;2022-10-16T00:19:21;1.33;;;0.97;;
9958;SDS011;5019;48.012;7.812;2022-10-16T00:21:47;0.97;;;0.97;;
9958;SDS011;5019;48.012;7.812;2022-10-16T00:24:13;1.00;;;0.90;;
9958;SDS011;5019;48.012;7.812;2022-10-16T00:26:39;3.60;;;0.90;;
9958;SDS011;5019;48.012;7.812;2022-10-16T00:29:07;1.37;;;1.03;;
9958;SDS011;5019;48.012;7.812;2022-10-16T00:31:33;3.10;;;1.27;;
9958;SDS011;5019;48.012;7.812;2022-10-16T00:33:59;1.77;;;0.90;;
9958;SDS011;5019;48.012;7.812;2022-10-16T00:36:26;1.20;;;1.10;;
9958;SDS011;5019;48.012;7.812;2022-10-16T00:38:52;0.90;;;0.90;;
9958;SDS011;5019;48.012;7.812;2022-10-16T00:41:19;1.07;;;0.97;;
9958;SDS011;5019;48.012;7.812;2022-10-16T00:43:50;1.27;;;1.17;;
9958;SDS011;5019;48.012;7.812;2022-10-16T00:46:24;1.63;;;1.10;;
9958;SDS011;5019;48.012;7.812;2022-10-16T00:49:03;1.77;;;1.00;;
9958;SDS011;5019;48.012;7.812;2022-10-16T00:51:32;1.20;;;1.10;;
9958;SDS011;5019;48.012;7.812;2022-10-16T00:53:59;3.23;;;1.33;;
9958;SDS011;5019;48.012;7.812;2022-10-16T00:56:25;0.87;;;0.87;;
9958;SDS011;5019;48.012;7.812;2022-10-16T00:58:51;1.00;;;0.83;;
9958;SDS011;5019;48.012;7.812;2022-10-16T01:01:17;1.33;;;1.23;;
9958;SDS011;5019;48.012;7.812;2022-10-16T01:03:44;1.10;;;1.00;;
9958;SDS011;5019;48.012;7.812;2022-10-16T01:06:21;1.27;;;1.10;;
9958;SDS011;5019;48.012;7.812;2022-10-16T01:11:29;1.00;;;0.90;;
9958;SDS011;5019;48.012;7.812;2022-10-16T01:13:58;1.27;;;1.17;;
9958;SDS011;5019;48.012;7.812;2022-10-16T01:16:34;1.77;;;0.90;;
9958;SDS011;5019;48.012;7.812;2022-10-16T01:19:07;1.20;;;0.90;;
9958;SDS011;5019;48.012;7.812;2022-10-16T01:21:36;1.17;;;0.93;;
9958;SDS011;5019;48.012;7.812;2022-10-16T01:29:40;3.20;;;1.03;;
9958;SDS011;5019;48.012;7.812;2022-10-16T01:37:27;0.60;;;0.60;;
9958;SDS011;5019;48.012;7.812;2022-10-16T01:39:55;0.80;;;0.80;;
9958;SDS011;5019;48.012;7.812;2022-10-16T01:42:25;0.77;;;0.77;;
9958;SDS011;5019;48.012;7.812;2022-10-16T01:44:52;0.80;;;0.80;;
9958;SDS011;5019;48.012;7.812;2022-10-16T01:47:19;0.67;;;0.63;;
9958;SDS011;5019;48.012;7.812;2022-10-16T01:49:48;1.10;;;0.90;;
9958;SDS011;5019;48.012;7.812;2022-10-16T01:52:16;0.70;;;0.70;;
9958;SDS011;5019;48.012;7.812;2022-10-16T01:54:43;2.00;;;0.83;;
9958;SDS011;5019;48.012;7.812;2022-10-16T01:57:11;0.83;;;0.83;;
9958;SDS011;5019;48.012;7.812;2022-10-16T01:59:40;0.97;;;0.67;;
9958;SDS011;5019;48.012;7.812;2022-10-16T02:02:08;0.80;;;0.80;;
9958;SDS011;5019;48.012;7.812;2022-10-16T02:04:37;0.90;;;0.80;;
9958;SDS011;5019;48.012;7.812;2022-10-16T02:07:04;1.00;;;1.00;;
9958;SDS011;5019;48.012;7.812;2022-10-16T02:09:32;1.00;;;1.00;;
9958;SDS011;5019;48.012;7.812;2022-10-16T02:11:59;0.70;;;0.70;;
9958;SDS011;5019;48.012;7.812;2022-10-16T02:14:28;0.80;;;0.80;;
9958;SDS011;5019;48.012;7.812;2022-10-16T02:16:54;1.00;;;1.00;;
9958;SDS011;5019;48.012;7.812;2022-10-16T02:19:20;1.27;;;0.87;;
9958;SDS011;5019;48.012;7.812;2022-10-16T02:21:54;0.77;;;0.77;;
9958;SDS011;5019;48.012;7.812;2022-10-16T02:29:16;1.00;;;0.80;;
9958;SDS011;5019;48.012;7.812;2022-10-16T02:31:45;1.10;;;1.00;;
9958;SDS011;5019;48.012;7.812;2022-10-16T02:34:12;1.27;;;0.80;;
9958;SDS011;5019;48.012;7.812;2022-10-16T02:36:39;2.47;;;1.00;;
9958;SDS011;5019;48.012;7.812;2022-10-16T02:39:07;1.07;;;0.97;;
9958;SDS011;5019;48.012;7.812;2022-10-16T02:41:33;0.93;;;0.77;;
9958;SDS011;5019;48.012;7.812;2022-10-16T02:44:00;1.50;;;1.23;;
9958;SDS011;5019;48.012;7.812;2022-10-16T02:46:26;0.90;;;0.90;;
9958;SDS011;5019;48.012;7.812;2022-10-16T02:48:52;1.30;;;1.20;;
9958;SDS011;5019;48.012;7.812;2022-10-16T02:51:18;3.03;;;1.00;;
9958;SDS011;5019;48.012;7.812;2022-10-16T02:53:44;0.90;;;0.90;;
9958;SDS011;5019;48.012;7.812;2022-10-16T02:56:10;1.27;;;0.93;;
9958;SDS011;5019;48.012;7.812;2022-10-16T02:58:36;1.30;;;1.20;;
9958;SDS011;5019;48.012;7.812;2022-10-16T03:01:02;2.70;;;1.20;;
9958;SDS011;5019;48.012;7.812;2022-10-16T03:03:28;1.20;;;1.10;;
9958;SDS011;5019;48.012;7.812;2022-10-16T03:05:54;2.23;;;1.50;;
9958;SDS011;5019;48.012;7.812;2022-10-16T03:08:20;3.30;;;2.50;;
9958;SDS011;5019;48.012;7.812;2022-10-16T03:10:48;3.20;;;2.30;;
9958;SDS011;5019;48.012;7.812;2022-10-16T03:13:14;1.57;;;1.47;;
9958;SDS011;5019;48.012;7.812;2022-10-16T03:15:40;1.27;;;1.10;;
9958;SDS011;5019;48.012;7.812;2022-10-16T03:18:06;0.90;;;0.90;;
9958;SDS011;5019;48.012;7.812;2022-10-16T03:20:32;0.90;;;0.87;;
9958;SDS011;5019;48.012;7.812;2022-10-16T03:22:58;1.60;;;1.10;;
9958;SDS011;5019;48.012;7.812;2022-10-16T03:25:25;1.20;;;1.10;;
9958;SDS011;5019;48.012;7.812;2022-10-16T03:27:50;1.20;;;1.10;;
9958;SDS011;5019;48.012;7.812;2022-10-16T03:30:17;1.20;;;1.10;;
9958;SDS011;5019;48.012;7.812;2022-10-16T03:32:43;1.20;;;1.10;;
9958;SDS011;5019;48.012;7.812;2022-10-16T03:35:10;0.90;;;0.90;;
9958;SDS011;5019;48.012;7.812;2022-10-16T03:37:36;1.17;;;1.07;;
9958;SDS011;5019;48.012;7.812;2022-10-16T03:40:02;1.00;;;0.90;;
9958;SDS011;5019;48.012;7.812;2022-10-16T03:42:29;1.37;;;1.27;;
9958;SDS011;5019;48.012;7.812;2022-10-16T03:44:55;1.23;;;0.90;;
9958;SDS011;5019;48.012;7.812;2022-10-16T03:47:21;1.20;;;0.90;;
9958;SDS011;5019;48.012;7.812;2022-10-16T03:49:48;0.80;;;0.80;;
9958;SDS011;5019;48.012;7.812;2022-10-16T03:52:15;0.83;;;0.83;;
9958;SDS011;5019;48.012;7.812;2022-10-16T03:54:41;1.67;;;0.80;;
9958;SDS011;5019;48.012;7.812;2022-10-16T03:57:07;3.87;;;0.87;;
9958;SDS011;5019;48.012;7.812;2022-10-16T03:59:33;0.80;;;0.80;;
9958;SDS011;5019;48.012;7.812;2022-10-16T04:01:59;3.83;;;0.90;;
9958;SDS011;5019;48.012;7.812;2022-10-16T04:04:25;0.90;;;0.90;;
9958;SDS011;5019;48.012;7.812;2022-10-16T04:06:51;2.73;;;1.00;;
9958;SDS011;5019;48.012;7.812;2022-10-16T04:09:17;0.70;;;0.70;;
9958;SDS011;5019;48.012;7.812;2022-10-16T04:11:43;2.93;;;0.80;;
9958;SDS011;5019;48.012;7.812;2022-10-16T04:14:09;6.20;;;1.10;;
9958;SDS011;5019;48.012;7.812;2022-10-16T04:16:35;0.80;;;0.80;;
9958;SDS011;5019;48.012;7.812;2022-10-16T04:19:01;1.00;;;0.80;;
9958;SDS011;5019;48.012;7.812;2022-10-16T04:21:27;1.37;;;0.93;;
9958;SDS011;5019;48.012;7.812;2022-10-16T04:23:53;1.00;;;1.00;;
9958;SDS011;5019;48.012;7.812;2022-10-16T04:26:19;1.93;;;1.07;;
9958;SDS011;5019;48.012;7.812;2022-10-16T04:28:45;1.10;;;0.97;;
9958;SDS011;5019;48.012;7.812;2022-10-16T04:31:11;0.90;;;0.90;;
9958;SDS011;5019;48.012;7.812;2022-10-16T04:33:37;1.10;;;1.00;;
9958;SDS011;5019;48.012;7.812;2022-10-16T04:36:03;2.70;;;0.87;;
9958;SDS011;5019;48.012;7.812;2022-10-16T04:38:29;1.17;;;0.97;;
9958;SDS011;5019;48.012;7.812;2022-10-16T04:40:55;1.47;;;0.90;;
9958;SDS011;5019;48.012;7.812;2022-10-16T04:43:21;1.20;;;1.10;;
9958;SDS011;5019;48.012;7.812;2022-10-16T04:45:47;1.00;;;1.00;;
9958;SDS011;5019;48.012;7.812;2022-10-16T04:48:15;1.20;;;1.07;;
9958;SDS011;5019;48.012;7.812;2022-10-16T04:50:41;1.00;;;0.90;;
9958;SDS011;5019;48.012;7.812;2022-10-16T04:53:07;1.77;;;1.27;;
9958;SDS011;5019;48.012;7.812;2022-10-16T04:55:33;1.00;;;0.90;;
9958;SDS011;5019;48.012;7.812;2022-10-16T04:58:00;0.73;;;0.73;;
9958;SDS011;5019;48.012;7.812;2022-10-16T05:00:26;1.00;;;1.00;;
9958;SDS011;5019;48.012;7.812;2022-10-16T05:02:52;1.97;;;1.60;;
9958;SDS011;5019;48.012;7.812;2022-10-16T05:05:18;1.33;;;1.23;;
9958;SDS011;5019;48.012;7.812;2022-10-16T05:07:45;1.07;;;1.00;;
9958;SDS011;5019;48.012;7.812;2022-10-16T05:10:11;1.20;;;1.10;;
9958;SDS011;5019;48.012;7.812;2022-10-16T05:12:37;2.10;;;1.00;;
9958;SDS011;5019;48.012;7.812;2022-10-16T05:15:03;1.40;;;1.30;;
9958;SDS011;5019;48.012;7.812;2022-10-16T05:17:29;1.00;;;0.90;;
9958;SDS011;5019;48.012;7.812;2022-10-16T05:19:55;0.93;;;0.90;;
9958;SDS011;5019;48.012;7.812;2022-10-16T05:22:21;1.00;;;1.00;;
9958;SDS011;5019;48.012;7.812;2022-10-16T05:24:47;1.17;;;1.10;;
9958;SDS011;5019;48.012;7.812;2022-10-16T05:27:13;0.87;;;0.70;;
9958;SDS011;5019;48.012;7.812;2022-10-16T05:29:44;1.97;;;0.97;;
9958;SDS011;5019;48.012;7.812;2022-10-16T05:32:11;1.00;;;1.00;;
9958;SDS011;5019;48.012;7.812;2022-10-16T05:34:37;1.00;;;1.00;;
9958;SDS011;5019;48.012;7.812;2022-10-16T05:37:03;4.10;;;1.00;;
9958;SDS011;5019;48.012;7.812;2022-10-16T05:39:29;0.93;;;0.70;;
9958;SDS011;5019;48.012;7.812;2022-10-16T05:41:55;0.80;;;0.80;;
9958;SDS011;5019;48.012;7.812;2022-10-16T05:44:21;1.00;;;0.90;;
9958;SDS011;5019;48.012;7.812;2022-10-16T05:46:47;1.23;;;1.10;;
9958;SDS011;5019;48.012;7.812;2022-10-16T05:49:14;1.00;;;0.90;;
9958;SDS011;5019;48.012;7.812;2022-10-16T05:51:40;1.97;;;1.20;;
9958;SDS011;5019;48.012;7.812;2022-10-16T05:54:06;1.03;;;1.00;;
9958;SDS011;5019;48.012;7.812;2022-10-16T05:56:33;0.90;;;0.90;;
9958;SDS011;5019;48.012;7.812;2022-10-16T05:58:59;2.30;;;1.03;;
9958;SDS011;5019;48.012;7.812;2022-10-16T06:01:25;3.23;;;1.37;;
9958;SDS011;5019;48.012;7.812;2022-10-16T06:03:51;1.07;;;0.93;;
9958;SDS011;5019;48.012;7.812;2022-10-16T06:06:18;1.30;;;1.10;;
9958;SDS011;5019;48.012;7.812;2022-10-16T06:08:45;1.23;;;1.13;;
9958;SDS011;5019;48.012;7.812;2022-10-16T06:11:13;1.17;;;1.07;;
9958;SDS011;5019;48.012;7.812;2022-10-16T06:13:39;1.13;;;1.03;;
9958;SDS011;5019;48.012;7.812;2022-10-16T06:16:07;1.37;;;1.00;;
9958;SDS011;5019;48.012;7.812;2022-10-16T06:18:33;1.43;;;1.33;;
9958;SDS011;5019;48.012;7.812;2022-10-16T06:20:59;4.20;;;1.80;;
9958;SDS011;5019;48.012;7.812;2022-10-16T06:23:25;2.00;;;1.00;;
9958;SDS011;5019;48.012;7.812;2022-10-16T06:25:54;1.30;;;1.10;;
9958;SDS011;5019;48.012;7.812;2022-10-16T06:28:20;1.13;;;0.97;;
9958;SDS011;5019;48.012;7.812;2022-10-16T06:30:46;5.93;;;1.30;;
9958;SDS011;5019;48.012;7.812;2022-10-16T06:33:12;2.30;;;1.30;;
9958;SDS011;5019;48.012;7.812;2022-10-16T06:35:38;1.27;;;1.17;;
9958;SDS011;5019;48.012;7.812;2022-10-16T06:38:04;2.53;;;1.00;;
9958;SDS011;5019;48.012;7.812;2022-10-16T06:40:30;1.30;;;1.10;;
9958;SDS011;5019;48.012;7.812;2022-10-16T06:42:56;2.60;;;1.20;;
9958;SDS011;5019;48.012;7.812;2022-10-16T06:45:22;1.00;;;1.00;;
9958;SDS011;5019;48.012;7.812;2022-10-16T06:47:48;2.33;;;1.30;;
9958;SDS011;5019;48.012;7.812;2022-10-16T06:50:14;1.23;;;1.10;;
9958;SDS011;5019;48.012;7.812;2022-10-16T06:52:40;2.80;;;1.23;;
9958;SDS011;5019;48.012;7.812;2022-10-16T06:55:06;1.50;;;1.40;;
9958;SDS011;5019;48.012;7.812;2022-10-16T06:57:32;1.00;;;1.00;;
9958;SDS011;5019;48.012;7.812;2022-10-16T06:59:58;1.70;;;1.27;;
9958;SDS011;5019;48.012;7.812;2022-10-16T07:02:24;3.00;;;1.33;;
9958;SDS011;5019;48.012;7.812;2022-10-16T07:04:50;0.97;;;0.90;;
9958;SDS011;5019;48.012;7.812;2022-10-16T07:07:16;1.60;;;0.97;;
9958;SDS011;5019;48.012;7.812;2022-10-16T07:09:42;1.60;;;1.30;;
9958;SDS011;5019;48.012;7.812;2022-10-16T07:12:08;2.23;;;1.27;;
9958;SDS011;5019;48.012;7.812;2022-10-16T07:14:34;1.20;;;1.10;;
9958;SDS011;5019;48.012;7.812;2022-10-16T07:17:00;1.63;;;1.30;;
9958;SDS011;5019;48.012;7.812;2022-10-16T07:19:26;1.80;;;1.53;;
9958;SDS011;5019;48.012;7.812;2022-10-16T07:21:53;4.70;;;1.50;;
9958;SDS011;5019;48.012;7.812;2022-10-16T07:24:19;2.70;;;1.30;;
9958;SDS011;5019;48.012;7.812;2022-10-16T07:26:45;2.17;;;1.63;;
9958;SDS011;5019;48.012;7.812;2022-10-16T07:29:15;3.03;;;1.70;;
9958;SDS011;5019;48.012;7.812;2022-10-16T07:34:22;2.10;;;1.47;;
9958;SDS011;5019;48.012;7.812;2022-10-16T07:36:49;3.50;;;2.00;;
9958;SDS011;5019;48.012;7.812;2022-10-16T07:39:15;1.47;;;1.37;;
9958;SDS011;5019;48.012;7.812;2022-10-16T07:41:41;2.43;;;1.13;;
9958;SDS011;5019;48.012;7.812;2022-10-16T07:44:07;1.10;;;1.00;;
9958;SDS011;5019;48.012;7.812;2022-10-16T07:46:33;2.07;;;1.57;;
9958;SDS011;5019;48.012;7.812;2022-10-16T07:49:01;1.50;;;1.30;;
9958;SDS011;5019;48.012;7.812;2022-10-16T07:51:27;1.30;;;1.20;;
9958;SDS011;5019;48.012;7.812;2022-10-16T07:53:53;1.80;;;1.70;;
9958;SDS011;5019;48.012;7.812;2022-10-16T07:56:19;4.03;;;2.07;;
9958;SDS011;5019;48.012;7.812;2022-10-16T07:58:46;1.60;;;1.50;;
9958;SDS011;5019;48.012;7.812;2022-10-16T08:01:14;1.30;;;1.20;;
9958;SDS011;5019;48.012;7.812;2022-10-16T08:03:41;2.27;;;1.50;;
9958;SDS011;5019;48.012;7.812;2022-10-16T08:06:08;2.70;;;1.40;;
9958;SDS011;5019;48.012;7.812;2022-10-16T08:08:34;2.70;;;2.50;;
9958;SDS011;5019;48.012;7.812;2022-10-16T08:11:00;1.70;;;1.50;;
9958;SDS011;5019;48.012;7.812;2022-10-16T08:13:28;3.77;;;1.67;;
9958;SDS011;5019;48.012;7.812;2022-10-16T08:15:54;2.20;;;1.60;;
9958;SDS011;5019;48.012;7.812;2022-10-16T08:18:21;1.33;;;1.23;;
9958;SDS011;5019;48.012;7.812;2022-10-16T08:20:47;1.40;;;1.30;;
9958;SDS011;5019;48.012;7.812;2022-10-16T08:23:13;1.10;;;1.00;;
9958;SDS011;5019;48.012;7.812;2022-10-16T08:25:39;3.23;;;1.30;;
9958;SDS011;5019;48.012;7.812;2022-10-16T08:28:06;1.17;;;0.90;;
9958;SDS011;5019;48.012;7.812;2022-10-16T08:30:32;1.47;;;1.30;;
9958;SDS011;5019;48.012;7.812;2022-10-16T08:32:59;4.70;;;1.10;;
9958;SDS011;5019;48.012;7.812;2022-10-16T08:35:25;1.90;;;1.20;;
9958;SDS011;5019;48.012;7.812;2022-10-16T08:37:51;1.40;;;1.30;;
9958;SDS011;5019;48.012;7.812;2022-10-16T08:40:29;1.70;;;1.17;;
9958;SDS011;5019;48.012;7.812;2022-10-16T08:45:26;1.97;;;1.77;;
9958;SDS011;5019;48.012;7.812;2022-10-16T08:50:24;1.23;;;1.00;;
9958;SDS011;5019;48.012;7.812;2022-10-16T08:52:52;1.10;;;1.00;;
9958;SDS011;5019;48.012;7.812;2022-10-16T08:55:28;1.30;;;1.20;;
9958;SDS011;5019;48.012;7.812;2022-10-16T08:57:57;2.90;;;1.30;;
9958;SDS011;5019;48.012;7.812;2022-10-16T09:00:23;1.40;;;1.30;;
9958;SDS011;5019;48.012;7.812;2022-10-16T09:02:53;1.33;;;1.23;;
9958;SDS011;5019;48.012;7.812;2022-10-16T09:05:30;1.30;;;1.20;;
9958;SDS011;5019;48.012;7.812;2022-10-16T09:10:47;1.60;;;1.10;;
9958;SDS011;5019;48.012;7.812;2022-10-16T09:20:45;1.13;;;1.03;;
9958;SDS011;5019;48.012;7.812;2022-10-16T09:23:19;1.57;;;1.10;;
9958;SDS011;5019;48.012;7.812;2022-10-16T09:25:47;1.30;;;1.20;;
9958;SDS011;5019;48.012;7.812;2022-10-16T09:28:14;1.37;;;1.27;;
9958;SDS011;5019;48.012;7.812;2022-10-16T09:30:40;3.13;;;1.37;;
9958;SDS011;5019;48.012;7.812;2022-10-16T09:33:07;1.23;;;1.03;;
9958;SDS011;5019;48.012;7.812;2022-10-16T09:37:59;1.73;;;1.10;;
9958;SDS011;5019;48.012;7.812;2022-10-16T09:40:30;1.73;;;1.57;;
9958;SDS011;5019;48.012;7.812;2022-10-16T09:42:57;1.50;;;1.40;;
9958;SDS011;5019;48.012;7.812;2022-10-16T09:45:26;1.77;;;1.00;;
9958;SDS011;5019;48.012;7.812;2022-10-16T09:47:52;1.30;;;1.20;;
9958;SDS011;5019;48.012;7.812;2022-10-16T09:50:26;0.90;;;0.90;;
9958;SDS011;5019;48.012;7.812;2022-10-16T09:53:07;1.40;;;1.30;;
9958;SDS011;5019;48.012;7.812;2022-10-16T09:55:35;1.43;;;0.97;;
9958;SDS011;5019;48.012;7.812;2022-10-16T09:58:02;2.20;;;1.30;;
9958;SDS011;5019;48.012;7.812;2022-10-16T10:00:28;0.80;;;0.77;;
9958;SDS011;5019;48.012;7.812;2022-10-16T10:02:54;0.90;;;0.90;;
9958;SDS011;5019;48.012;7.812;2022-10-16T10:05:21;1.10;;;1.00;;
9958;SDS011;5019;48.012;7.812;2022-10-16T10:07:53;1.13;;;0.90;;
9958;SDS011;5019;48.012;7.812;2022-10-16T10:10:21;1.03;;;0.90;;
9958;SDS011;5019;48.012;7.812;2022-10-16T10:12:47;1.60;;;1.03;;
9958;SDS011;5019;48.012;7.812;2022-10-16T10:15:13;1.00;;;0.83;;
9958;SDS011;5019;48.012;7.812;2022-10-16T10:17:56;0.77;;;0.77;;
9958;SDS011;5019;48.012;7.812;2022-10-16T10:20:29;0.80;;;0.80;;
9958;SDS011;5019;48.012;7.812;2022-10-16T10:22:57;1.70;;;1.43;;
9958;SDS011;5019;48.012;7.812;2022-10-16T10:46:08;1.10;;;1.00;;
9958;SDS011;5019;48.012;7.812;2022-10-16T10:51:06;1.27;;;1.17;;
9958;SDS011;5019;48.012;7.812;2022-10-16T10:53:47;1.10;;;1.03;;
9958;SDS011;5019;48.012;7.812;2022-10-16T10:56:21;2.87;;;1.20;;
9958;SDS011;5019;48.012;7.812;2022-10-16T11:01:39;0.90;;;0.90;;
9958;SDS011;5019;48.012;7.812;2022-10-16T11:09:18;1.10;;;1.00;;
9958;SDS011;5019;48.012;7.812;2022-10-16T11:14:46;0.73;;;0.73;;
9958;SDS011;5019;48.012;7.812;2022-10-16T11:17:16;2.27;;;1.40;;
9958;SDS011;5019;48.012;7.812;2022-10-16T11:19:48;1.17;;;1.03;;
9958;SDS011;5019;48.012;7.812;2022-10-16T11:22:30;1.00;;;1.00;;
9958;SDS011;5019;48.012;7.812;2022-10-16T11:27:40;1.20;;;1.03;;
9958;SDS011;5019;48.012;7.812;2022-10-16T11:30:12;1.40;;;1.30;;
9958;SDS011;5019;48.012;7.812;2022-10-16T11:32:49;1.10;;;0.80;;
9958;SDS011;5019;48.012;7.812;2022-10-16T11:35:21;0.77;;;0.77;;
9958;SDS011;5019;48.012;7.812;2022-10-16T11:37:48;1.33;;;1.00;;
9958;SDS011;5019;48.012;7.812;2022-10-16T11:42:56;1.10;;;0.90;;
9958;SDS011;5019;48.012;7.812;2022-10-16T11:45:34;0.63;;;0.63;;
9958;SDS011;5019;48.012;7.812;2022-10-16T11:50:49;1.30;;;1.07;;
9958;SDS011;5019;48.012;7.812;2022-10-16T11:53:18;1.10;;;1.00;;
9958;SDS011;5019;48.012;7.812;2022-10-16T11:55:47;0.90;;;0.90;;
9958;SDS011;5019;48.012;7.812;2022-10-16T11:58:16;1.10;;;0.97;;
9958;SDS011;5019;48.012;7.812;2022-10-16T12:00:51;0.90;;;0.80;;
9958;SDS011;5019;48.012;7.812;2022-10-16T12:08:16;0.87;;;0.87;;
9958;SDS011;5019;48.012;7.812;2022-10-16T12:10:44;0.73;;;0.73;;
9958;SDS011;5019;48.012;7.812;2022-10-16T12:16:20;0.90;;;0.90;;
9958;SDS011;5019;48.012;7.812;2022-10-16T12:18:46;3.37;;;0.97;;
9958;SDS011;5019;48.012;7.812;2022-10-16T12:21:13;1.20;;;1.07;;
9958;SDS011;5019;48.012;7.812;2022-10-16T12:23:51;3.33;;;0.97;;
9958;SDS011;5019;48.012;7.812;2022-10-16T12:26:27;0.90;;;0.80;;
9958;SDS011;5019;48.012;7.812;2022-10-16T12:28:54;0.87;;;0.87;;
9958;SDS011;5019;48.012;7.812;2022-10-16T12:31:21;2.20;;;1.00;;
9958;SDS011;5019;48.012;7.812;2022-10-16T12:33:58;1.00;;;0.63;;
9958;SDS011;5019;48.012;7.812;2022-10-16T12:36:29;0.90;;;0.80;;
9958;SDS011;5019;48.012;7.812;2022-10-16T12:38:55;1.47;;;1.00;;
9958;SDS011;5019;48.012;7.812;2022-10-16T12:43:51;1.57;;;1.00;;
9958;SDS011;5019;48.012;7.812;2022-10-16T12:48:43;4.00;;;1.27;;
9958;SDS011;5019;48.012;7.812;2022-10-16T12:53:36;0.97;;;0.90;;
9958;SDS011;5019;48.012;7.812;2022-10-16T13:06:55;1.97;;;0.80;;
9958;SDS011;5019;48.012;7.812;2022-10-16T13:09:28;0.80;;;0.80;;
9958;SDS011;5019;48.012;7.812;2022-10-16T13:12:07;1.10;;;1.00;;
9958;SDS011;5019;48.012;7.812;2022-10-16T13:17:15;1.33;;;1.20;;
9958;SDS011;5019;48.012;7.812;2022-10-16T13:22:17;1.00;;;0.90;;
9958;SDS011;5019;48.012;7.812;2022-10-16T13:29:49;1.13;;;1.03;;
9958;SDS011;5019;48.012;7.812;2022-10-16T13:34:49;2.50;;;1.20;;
9958;SDS011;5019;48.012;7.812;2022-10-16T13:37:16;1.50;;;1.00;;
9958;SDS011;5019;48.012;7.812;2022-10-16T13:39:43;0.73;;;0.73;;
9958;SDS011;5019;48.012;7.812;2022-10-16T13:42:13;0.87;;;0.80;;
9958;SDS011;5019;48.012;7.812;2022-10-16T13:44:41;2.20;;;1.40;;
9958;SDS011;5019;48.012;7.812;2022-10-16T13:47:15;0.97;;;0.90;;
9958;SDS011;5019;48.012;7.812;2022-10-16T13:49:41;1.23;;;1.03;;
9958;SDS011;5019;48.012;7.812;2022-10-16T13:52:15;2.20;;;1.10;;
9958;SDS011;5019;48.012;7.812;2022-10-16T13:54:42;0.97;;;0.97;;
9958;SDS011;5019;48.012;7.812;2022-10-16T13:57:08;1.83;;;1.53;;
9958;SDS011;5019;48.012;7.812;2022-10-16T13:59:38;1.13;;;1.03;;
9958;SDS011;5019;48.012;7.812;2022-10-16T14:02:25;3.60;;;1.10;;
9958;SDS011;5019;48.012;7.812;2022-10-16T14:04:52;0.80;;;0.80;;
9958;SDS011;5019;48.012;7.812;2022-10-16T14:07:24;2.10;;;1.37;;
9958;SDS011;5019;48.012;7.812;2022-10-16T14:09:51;1.00;;;0.90;;
9958;SDS011;5019;48.012;7.812;2022-10-16T14:12:17;1.23;;;0.93;;
9958;SDS011;5019;48.012;7.812;2022-10-16T14:14:44;1.30;;;1.17;;
9958;SDS011;5019;48.012;7.812;2022-10-16T14:17:24;1.63;;;1.53;;
9958;SDS011;5019;48.012;7.812;2022-10-16T14:19:52;4.80;;;2.97;;
9958;SDS011;5019;48.012;7.812;2022-10-16T14:25:23;0.93;;;0.87;;
9958;SDS011;5019;48.012;7.812;2022-10-16T14:28:00;1.50;;;1.40;;
9958;SDS011;5019;48.012;7.812;2022-10-16T14:30:26;1.30;;;1.20;;
9958;SDS011;5019;48.012;7.812;2022-10-16T14:33:37;0.80;;;0.80;;
9958;SDS011;5019;48.012;7.812;2022-10-16T14:35:39;1.73;;;1.47;;
9958;SDS011;5019;48.012;7.812;2022-10-16T14:38:05;1.67;;;1.57;;
9958;SDS011;5019;48.012;7.812;2022-10-16T14:40:35;2.00;;;1.23;;
9958;SDS011;5019;48.012;7.812;2022-10-16T14:43:02;2.40;;;1.37;;
9958;SDS011;5019;48.012;7.812;2022-10-16T14:45:29;5.50;;;1.40;;
9958;SDS011;5019;48.012;7.812;2022-10-16T14:47:57;2.20;;;1.20;;
9958;SDS011;5019;48.012;7.812;2022-10-16T14:50:23;1.93;;;1.73;;
9958;SDS011;5019;48.012;7.812;2022-10-16T14:52:49;1.70;;;1.40;;
9958;SDS011;5019;48.012;7.812;2022-10-16T14:55:16;2.07;;;1.20;;
9958;SDS011;5019;48.012;7.812;2022-10-16T14:57:42;0.97;;;0.90;;
9958;SDS011;5019;48.012;7.812;2022-10-16T15:00:19;1.33;;;1.23;;
9958;SDS011;5019;48.012;7.812;2022-10-16T15:02:46;1.47;;;1.10;;
9958;SDS011;5019;48.012;7.812;2022-10-16T15:05:26;1.70;;;1.60;;
9958;SDS011;5019;48.012;7.812;2022-10-16T15:07:55;1.50;;;1.40;;
9958;SDS011;5019;48.012;7.812;2022-10-16T15:10:22;1.13;;;1.03;;
9958;SDS011;5019;48.012;7.812;2022-10-16T15:12:48;1.30;;;1.20;;
9958;SDS011;5019;48.012;7.812;2022-10-16T15:15:19;1.27;;;1.10;;
9958;SDS011;5019;48.012;7.812;2022-10-16T15:17:47;2.60;;;1.23;;
9958;SDS011;5019;48.012;7.812;2022-10-16T15:20:13;1.10;;;1.10;;
9958;SDS011;5019;48.012;7.812;2022-10-16T15:22:39;1.20;;;1.10;;
9958;SDS011;5019;48.012;7.812;2022-10-16T15:27:54;1.27;;;1.17;;
9958;SDS011;5019;48.012;7.812;2022-10-16T15:30:20;1.07;;;0.90;;
9958;SDS011;5019;48.012;7.812;2022-10-16T15:32:46;1.47;;;1.37;;
9958;SDS011;5019;48.012;7.812;2022-10-16T15:35:12;1.57;;;1.33;;
9958;SDS011;5019;48.012;7.812;2022-10-16T15:37:38;1.30;;;1.20;;
9958;SDS011;5019;48.012;7.812;2022-10-16T15:40:05;1.20;;;1.00;;
9958;SDS011;5019;48.012;7.812;2022-10-16T15:42:31;2.00;;;1.90;;
9958;SDS011;5019;48.012;7.812;2022-10-16T15:44:57;1.80;;;1.50;;
9958;SDS011;5019;48.012;7.812;2022-10-16T15:47:23;2.43;;;1.70;;
9958;SDS011;5019;48.012;7.812;2022-10-16T15:49:49;1.73;;;1.20;;
9958;SDS011;5019;48.012;7.812;2022-10-16T15:52:15;1.00;;;0.90;;
9958;SDS011;5019;48.012;7.812;2022-10-16T15:54:42;1.77;;;1.03;;
9958;SDS011;5019;48.012;7.812;2022-10-16T15:57:09;1.10;;;0.97;;
9958;SDS011;5019;48.012;7.812;2022-10-16T15:59:34;1.77;;;1.20;;
9958;SDS011;5019;48.012;7.812;2022-10-16T16:02:00;0.90;;;0.90;;
9958;SDS011;5019;48.012;7.812;2022-10-16T16:04:29;1.63;;;1.30;;
9958;SDS011;5019;48.012;7.812;2022-10-16T16:06:55;2.00;;;1.27;;
9958;SDS011;5019;48.012;7.812;2022-10-16T16:09:21;2.30;;;1.83;;
9958;SDS011;5019;48.012;7.812;2022-10-16T16:11:48;1.30;;;1.20;;
9958;SDS011;5019;48.012;7.812;2022-10-16T16:14:16;1.07;;;1.00;;
9958;SDS011;5019;48.012;7.812;2022-10-16T16:16:42;1.30;;;1.20;;
9958;SDS011;5019;48.012;7.812;2022-10-16T16:19:08;1.47;;;1.37;;
9958;SDS011;5019;48.012;7.812;2022-10-16T16:21:34;2.43;;;2.17;;
9958;SDS011;5019;48.012;7.812;2022-10-16T16:24:01;2.23;;;1.67;;
9958;SDS011;5019;48.012;7.812;2022-10-16T16:26:32;1.73;;;1.60;;
9958;SDS011;5019;48.012;7.812;2022-10-16T16:29:01;1.80;;;1.70;;
9958;SDS011;5019;48.012;7.812;2022-10-16T16:31:28;3.47;;;2.90;;
9958;SDS011;5019;48.012;7.812;2022-10-16T16:33:54;5.10;;;2.47;;
9958;SDS011;5019;48.012;7.812;2022-10-16T16:36:21;4.80;;;2.37;;
9958;SDS011;5019;48.012;7.812;2022-10-16T16:38:47;3.67;;;2.20;;
9958;SDS011;5019;48.012;7.812;2022-10-16T16:41:14;3.17;;;2.47;;
9958;SDS011;5019;48.012;7.812;2022-10-16T16:43:40;4.00;;;3.13;;
9958;SDS011;5019;48.012;7.812;2022-10-16T16:46:07;3.23;;;2.17;;
9958;SDS011;5019;48.012;7.812;2022-10-16T16:48:33;2.73;;;2.13;;
9958;SDS011;5019;48.012;7.812;2022-10-16T16:51:03;6.30;;;2.13;;
9958;SDS011;5019;48.012;7.812;2022-10-16T16:53:29;2.47;;;2.10;;
9958;SDS011;5019;48.012;7.812;2022-10-16T16:55:55;2.20;;;2.00;;
9958;SDS011;5019;48.012;7.812;2022-10-16T16:58:21;3.00;;;2.30;;
9958;SDS011;5019;48.012;7.812;2022-10-16T17:00:47;3.43;;;2.30;;
9958;SDS011;5019;48.012;7.812;2022-10-16T17:03:13;3.23;;;2.20;;
9958;SDS011;5019;48.012;7.812;2022-10-16T17:05:39;1.77;;;1.67;;
9958;SDS011;5019;48.012;7.812;2022-10-16T17:08:08;3.60;;;2.30;;
9958;SDS011;5019;48.012;7.812;2022-10-16T17:10:41;3.80;;;2.93;;
9958;SDS011;5019;48.012;7.812;2022-10-16T17:13:07;1.97;;;1.80;;
9958;SDS011;5019;48.012;7.812;2022-10-16T17:15:33;3.07;;;2.20;;
9958;SDS011;5019;48.012;7.812;2022-10-16T17:17:59;3.13;;;1.93;;
9958;SDS011;5019;48.012;7.812;2022-10-16T17:20:25;3.03;;;2.23;;
9958;SDS011;5019;48.012;7.812;2022-10-16T17:22:51;2.80;;;2.23;;
9958;SDS011;5019;48.012;7.812;2022-10-16T17:25:17;2.03;;;1.83;;